Midvalley, Pennsylvania
Current Conditions -  °F | °C
As of 1:55 AM on Sunday 26 Oct 2014 (Local Time) from KHZL Reporting Station
Scattered Clouds Scattered Clouds  
Wind Chill: 54°   Ceiling: Unl
Heat Index: 54°   Visibility: 10mi
Dew Point: 39°   Wind: 0mph
Humidity: 58%   Direction: NA
Pressure: 29.63"   Gusts: NA
Location:  40.8229°N, 76.3735°W
Report Text: KHZL 260555Z AUTO 00000KT 10SM SCT043 SCT050 12/04 A2963 RMK AO2
Loading
Personal Weather Stations






























Interactive Weather Map New forecast layout! Learn more

10-Day Weather Forecast

Advertisements
Track Severe Weather on mobile